createdAt,value
2024-05-09T00:00:00.254Z,58
2024-05-09T00:05:00.154Z,59
2024-05-09T00:10:00.123Z,59
2024-05-09T00:15:00.112Z,58
2024-05-09T00:20:00.184Z,58
2024-05-09T00:25:00.145Z,59
2024-05-09T00:30:00.138Z,59
2024-05-09T00:35:00.154Z,60
2024-05-09T00:40:00.179Z,60
2024-05-09T00:45:00.128Z,60
2024-05-09T00:50:00.190Z,60
2024-05-09T00:55:00.124Z,60
2024-05-09T01:00:00.156Z,60
2024-05-09T01:10:00.121Z,60
2024-05-09T01:15:00.082Z,60
2024-05-09T01:20:00.211Z,61
2024-05-09T01:25:00.099Z,61
2024-05-09T01:30:00.159Z,61
2024-05-09T01:35:00.127Z,62
2024-05-09T01:40:00.112Z,62
2024-05-09T01:45:00.138Z,62
2024-05-09T01:50:00.191Z,63
2024-05-09T01:55:02.094Z,63
2024-05-09T02:00:00.569Z,64
2024-05-09T02:05:00.265Z,64
2024-05-09T02:10:00.105Z,65
2024-05-09T02:15:00.103Z,65
2024-05-09T02:20:00.166Z,65
2024-05-09T02:25:00.121Z,66
2024-05-09T02:30:00.140Z,66
2024-05-09T02:35:00.159Z,66
2024-05-09T02:40:00.264Z,66
2024-05-09T02:45:00.192Z,66
2024-05-09T02:50:00.101Z,67
2024-05-09T02:55:00.115Z,67
2024-05-09T03:00:00.192Z,67
2024-05-09T03:05:00.160Z,68
2024-05-09T03:10:00.133Z,67
2024-05-09T03:15:00.130Z,68
2024-05-09T03:20:00.203Z,69
2024-05-09T03:25:00.138Z,69
2024-05-09T03:30:00.227Z,69
2024-05-09T03:35:00.290Z,69
2024-05-09T03:40:00.145Z,70
2024-05-09T03:45:00.116Z,71
2024-05-09T03:50:00.151Z,73
2024-05-09T03:55:00.117Z,73
2024-05-09T04:00:00.138Z,73
2024-05-09T04:05:00.131Z,73
2024-05-09T04:10:00.153Z,73
2024-05-09T04:15:00.139Z,73
2024-05-09T04:20:00.147Z,75
2024-05-09T04:25:00.131Z,75
2024-05-09T04:30:00.148Z,77
2024-05-09T04:35:00.146Z,79
2024-05-09T04:40:00.116Z,76
2024-05-09T04:45:00.113Z,66
2024-05-09T04:50:00.134Z,63
2024-05-09T04:55:00.107Z,61
2024-05-09T05:00:00.155Z,57
2024-05-09T05:05:00.123Z,56
2024-05-09T05:10:00.153Z,56
2024-05-09T05:15:00.101Z,54
2024-05-09T05:20:00.225Z,53
2024-05-09T05:25:00.151Z,53
2024-05-09T05:30:00.183Z,53
2024-05-09T05:35:00.186Z,50
2024-05-09T05:40:00.125Z,49
2024-05-09T05:45:00.129Z,47
2024-05-09T05:50:00.134Z,47
2024-05-09T05:55:00.131Z,47
2024-05-09T06:00:00.143Z,47
2024-05-09T06:05:00.169Z,47
2024-05-09T06:10:00.209Z,47
2024-05-09T06:15:00.142Z,47
2024-05-09T06:20:00.198Z,46
2024-05-09T06:25:00.127Z,44
2024-05-09T06:30:00.165Z,41
2024-05-09T06:35:00.142Z,40
2024-05-09T06:40:00.131Z,38
2024-05-09T06:45:00.097Z,36
2024-05-09T06:50:00.226Z,35
2024-05-09T06:55:00.137Z,34
2024-05-09T07:00:00.136Z,33
2024-05-09T07:05:00.281Z,31
2024-05-09T07:10:00.128Z,30
2024-05-09T07:15:00.129Z,29
2024-05-09T07:20:00.230Z,29
2024-05-09T07:25:00.138Z,28
2024-05-09T07:30:00.178Z,26
2024-05-09T07:35:00.150Z,26
2024-05-09T07:40:00.182Z,26
2024-05-09T07:45:11.142Z,25
2024-05-09T07:50:54.375Z,25
2024-05-09T07:55:00.408Z,25
2024-05-09T08:00:00.201Z,24
2024-05-09T08:05:00.239Z,23
2024-05-09T08:10:00.200Z,23
2024-05-09T08:15:00.178Z,23
2024-05-09T08:20:01.026Z,22
2024-05-09T08:25:00.095Z,22
2024-05-09T08:30:00.154Z,23
2024-05-09T08:35:00.190Z,23
2024-05-09T08:40:00.279Z,22
2024-05-09T08:45:00.145Z,22
2024-05-09T08:50:00.263Z,22
2024-05-09T08:55:00.133Z,20
2024-05-09T09:00:00.151Z,21
2024-05-09T09:05:00.115Z,22
2024-05-09T09:10:00.230Z,21
2024-05-09T09:15:00.119Z,22
2024-05-09T09:20:00.313Z,22
2024-05-09T09:25:00.133Z,22
2024-05-09T09:30:00.215Z,22
2024-05-09T09:35:00.139Z,22
2024-05-09T09:40:00.193Z,22
2024-05-09T09:45:04.056Z,22
2024-05-09T09:50:00.122Z,22
2024-05-09T09:55:00.172Z,22
2024-05-09T10:00:00.156Z,21
2024-05-09T10:05:00.121Z,21
2024-05-09T10:10:00.144Z,21
2024-05-09T10:15:00.120Z,21
2024-05-09T10:20:00.159Z,22
2024-05-09T10:25:01.532Z,22
2024-05-09T10:30:00.207Z,22
2024-05-09T10:35:00.244Z,22
2024-05-09T10:40:00.197Z,22
2024-05-09T10:45:00.108Z,23
2024-05-09T10:50:00.200Z,23
2024-05-09T10:55:01.552Z,23
2024-05-09T11:00:00.174Z,23
2024-05-09T11:05:00.124Z,22
2024-05-09T11:10:00.196Z,22
2024-05-09T11:15:00.106Z,23
2024-05-09T11:20:00.177Z,23
2024-05-09T11:25:00.111Z,23
2024-05-09T11:30:00.182Z,24
2024-05-09T11:35:00.113Z,24
2024-05-09T11:40:00.170Z,25
2024-05-09T11:45:00.153Z,25
2024-05-09T11:50:00.270Z,25
2024-05-09T11:55:00.200Z,24
2024-05-09T12:00:00.173Z,24
2024-05-09T12:05:00.195Z,25
2024-05-09T12:10:00.160Z,25
2024-05-09T12:15:00.175Z,25
2024-05-09T12:20:00.149Z,26
2024-05-09T12:25:00.185Z,26
2024-05-09T12:30:00.167Z,26
2024-05-09T12:35:00.144Z,26
2024-05-09T12:40:00.141Z,27
2024-05-09T12:45:00.174Z,27
2024-05-09T12:50:00.161Z,27
2024-05-09T12:55:00.152Z,27
2024-05-09T13:00:00.146Z,27
2024-05-09T13:05:00.183Z,28
2024-05-09T13:10:00.162Z,27
2024-05-09T13:15:00.141Z,27
2024-05-09T13:20:00.126Z,28
2024-05-09T13:25:00.118Z,28
2024-05-09T13:30:00.180Z,28
2024-05-09T13:35:00.158Z,28
2024-05-09T13:40:00.198Z,28
2024-05-09T13:45:00.097Z,28
2024-05-09T13:50:00.121Z,28
2024-05-09T13:55:00.245Z,28
2024-05-09T14:00:00.189Z,28
2024-05-09T14:05:00.226Z,28
2024-05-09T14:10:00.159Z,28
2024-05-09T14:15:00.232Z,28
2024-05-09T14:20:00.111Z,28
2024-05-09T14:25:00.199Z,29
2024-05-09T14:30:00.129Z,29
2024-05-09T14:35:00.198Z,27
2024-05-09T14:40:00.157Z,28
2024-05-09T14:55:00.827Z,28
2024-05-09T15:00:00.182Z,29
2024-05-09T15:05:00.273Z,29
2024-05-09T15:10:00.140Z,29
2024-05-09T15:15:00.227Z,29
2024-05-09T15:20:00.209Z,29
2024-05-09T15:25:00.223Z,29
2024-05-09T15:30:00.162Z,29
2024-05-09T15:35:00.200Z,29
2024-05-09T15:40:00.217Z,29
2024-05-09T15:45:00.154Z,29
2024-05-09T15:50:00.295Z,29
2024-05-09T15:55:00.160Z,29
2024-05-09T16:00:00.254Z,29
2024-05-09T16:05:00.244Z,30
2024-05-09T16:10:00.197Z,30
2024-05-09T16:15:00.170Z,30
2024-05-09T16:20:00.189Z,29
2024-05-09T16:25:00.218Z,29
2024-05-09T16:30:00.172Z,29
2024-05-09T16:35:00.221Z,29
2024-05-09T16:40:00.141Z,30
2024-05-09T16:45:00.157Z,30
2024-05-09T16:50:00.130Z,30
2024-05-09T16:55:00.180Z,30
2024-05-09T17:00:00.163Z,30
2024-05-09T17:05:00.233Z,30
2024-05-09T17:10:00.146Z,30
2024-05-09T17:15:00.146Z,30
2024-05-09T17:20:00.116Z,30
2024-05-09T17:25:00.196Z,31
2024-05-09T17:30:00.175Z,31
2024-05-09T17:35:00.435Z,31
2024-05-09T17:40:00.174Z,31
2024-05-09T17:45:00.174Z,31
2024-05-09T17:50:00.143Z,32
2024-05-09T17:55:00.331Z,31
2024-05-09T18:00:00.171Z,33
2024-05-09T18:05:00.313Z,33
2024-05-09T18:10:00.196Z,33
2024-05-09T18:15:00.168Z,33
2024-05-09T18:20:00.221Z,33
2024-05-09T18:25:00.171Z,34
2024-05-09T18:30:00.165Z,34
2024-05-09T18:35:00.148Z,35
2024-05-09T18:40:00.247Z,35
2024-05-09T18:45:00.135Z,35
2024-05-09T18:50:00.199Z,35
2024-05-09T18:55:00.194Z,36
2024-05-09T19:00:00.195Z,36
2024-05-09T19:05:00.212Z,36
2024-05-09T19:10:00.171Z,37
2024-05-09T19:15:01.319Z,37
2024-05-09T19:20:00.222Z,37
2024-05-09T19:25:00.205Z,37
2024-05-09T19:30:00.140Z,38
2024-05-09T19:35:00.179Z,38
2024-05-09T19:40:00.105Z,38
2024-05-09T19:45:00.130Z,38
2024-05-09T19:50:00.205Z,39
2024-05-09T19:55:00.141Z,39
2024-05-09T20:00:00.219Z,39
2024-05-09T20:05:00.351Z,39
2024-05-09T20:10:00.207Z,40
2024-05-09T20:15:00.204Z,40
2024-05-09T20:20:00.358Z,39
2024-05-09T20:25:00.263Z,40
2024-05-09T20:30:00.184Z,40
2024-05-09T20:35:00.129Z,40
2024-05-09T20:40:00.242Z,40
2024-05-09T20:45:00.138Z,41
2024-05-09T20:50:00.174Z,41
2024-05-09T20:55:00.253Z,41
2024-05-09T21:00:00.199Z,41
2024-05-09T21:05:00.407Z,42
2024-05-09T21:10:00.229Z,42
2024-05-09T21:15:00.134Z,42
2024-05-09T21:20:00.122Z,42
2024-05-09T21:25:00.225Z,42
2024-05-09T21:30:00.128Z,42
2024-05-09T21:35:00.158Z,42
2024-05-09T21:40:00.225Z,42
2024-05-09T21:45:00.093Z,43
2024-05-09T21:50:00.131Z,43
2024-05-09T21:55:00.218Z,44
2024-05-09T22:00:00.200Z,44
2024-05-09T22:05:00.319Z,45
2024-05-09T22:10:00.233Z,45
2024-05-09T22:15:00.190Z,46
2024-05-09T22:20:00.152Z,47
2024-05-09T22:25:00.224Z,47
2024-05-09T22:30:00.137Z,47
2024-05-09T22:35:00.421Z,48
2024-05-09T22:40:01.366Z,48
2024-05-09T22:45:00.203Z,49
2024-05-09T22:50:00.107Z,49
2024-05-09T22:55:00.174Z,49
2024-05-09T23:00:00.195Z,49
2024-05-09T23:05:00.283Z,50
2024-05-09T23:10:00.122Z,49
2024-05-09T23:15:00.136Z,51
2024-05-09T23:20:00.149Z,52
2024-05-09T23:25:00.167Z,52
2024-05-09T23:30:00.161Z,52
2024-05-09T23:35:00.313Z,54
2024-05-09T23:40:00.198Z,57
2024-05-09T23:45:00.105Z,58
2024-05-09T23:50:00.115Z,59
2024-05-09T23:55:00.254Z,58
